Time;durP1;ratioP1;P1;durP2;ratioP2;P2;SDS_P1;SDS_P2;PMS_P1;PMS_P2;Temp;Humidity;BMP_temperature;BMP_pressure;BME280_temperature;BME280_humidity;BME280_pressure;Samples;Min_cycle;Max_cycle;Signal;HPM_P1;HPM_P2
2022/12/16 00:01:21;;;;;;;23.38;12.95;;;;;;;-7.85;100.00;100105.84;6195764;28;20046;-90
2022/12/16 00:04:23;;;;;;;23.67;11.73;;;;;;;-7.86;100.00;100105.84;6208435;28;20038;-90
2022/12/16 00:07:25;;;;;;;21.55;10.50;;;;;;;-7.89;100.00;100098.38;6199612;28;20152;-90
2022/12/16 00:10:51;;;;;;;21.55;11.32;;;;;;;-7.86;100.00;100103.34;6213657;28;20420;-90
2022/12/16 00:13:48;;;;;;;27.40;12.43;;;;;;;-7.88;100.00;100102.53;6208844;28;20049;-90
2022/12/16 00:16:51;;;;;;;20.45;11.15;;;;;;;-7.88;100.00;100110.06;6211376;28;20104;-89
2022/12/16 00:19:53;;;;;;;23.30;11.65;;;;;;;-7.90;100.00;100100.06;6204374;28;20056;-89
2022/12/16 00:22:55;;;;;;;23.67;11.90;;;;;;;-7.91;100.00;100095.03;6202537;28;20428;-89
2022/12/16 00:25:57;;;;;;;27.40;11.63;;;;;;;-7.92;100.00;100098.41;6186805;28;20169;-90
2022/12/16 00:28:59;;;;;;;26.48;12.63;;;;;;;-7.93;100.00;100102.56;6198373;28;20049;-90
2022/12/16 00:32:01;;;;;;;25.08;12.02;;;;;;;-7.90;100.00;100099.19;6199242;28;20054;-90
2022/12/16 00:35:03;;;;;;;23.77;11.32;;;;;;;-7.94;100.00;100100.91;6205239;28;20065;-90
2022/12/16 00:38:05;;;;;;;22.63;11.77;;;;;;;-7.93;100.00;100101.75;6191665;28;20046;-90
2022/12/16 00:41:08;;;;;;;26.38;13.18;;;;;;;-7.96;100.00;100104.28;6201083;28;20046;-90
2022/12/16 00:44:11;;;;;;;22.42;11.52;;;;;;;-7.95;100.00;100110.97;6196094;28;20041;-90
2022/12/16 00:47:13;;;;;;;25.17;12.23;;;;;;;-8.01;100.00;100106.84;6197466;28;20641;-89
2022/12/16 00:50:15;;;;;;;25.33;12.55;;;;;;;-8.03;100.00;100111.03;6195441;28;20512;-90
2022/12/16 00:53:17;;;;;;;25.67;12.40;;;;;;;-8.04;100.00;100111.91;6195937;28;20042;-90
2022/12/16 00:56:18;;;;;;;23.00;12.40;;;;;;;-8.06;100.00;100108.56;6199688;28;20049;-90
2022/12/16 00:59:20;;;;;;;25.15;11.93;;;;;;;-8.04;100.00;100112.72;6199188;28;20572;-90
2022/12/16 01:02:22;;;;;;;21.80;11.25;;;;;;;-8.05;100.00;100111.09;6196107;28;20078;-90
2022/12/16 01:05:30;;;;;;;26.52;12.02;;;;;;;-8.07;100.00;100114.47;6195019;28;20148;-90
2022/12/16 01:08:32;;;;;;;24.92;12.20;;;;;;;-8.11;100.00;100115.31;6191894;28;20309;-90
2022/12/16 01:11:35;;;;;;;25.70;13.00;;;;;;;-8.08;100.00;100120.31;6197498;28;20034;-90
2022/12/16 01:14:37;;;;;;;21.42;11.95;;;;;;;-8.10;100.00;100117.81;6185422;28;20046;-89
2022/12/16 01:17:40;;;;;;;22.88;12.45;;;;;;;-8.11;100.00;100123.69;6204844;28;20069;-90
2022/12/16 01:20:41;;;;;;;24.33;12.45;;;;;;;-8.13;100.00;100124.53;6206058;28;20563;-90
2022/12/16 01:23:43;;;;;;;22.35;12.32;;;;;;;-8.13;100.00;100137.91;6198960;28;20050;-90
2022/12/16 01:26:45;;;;;;;22.63;12.15;;;;;;;-8.15;100.00;100138.78;6210277;28;20120;-90
2022/12/16 01:29:47;;;;;;;21.88;11.48;;;;;;;-8.10;100.00;100132.91;6210728;28;20050;-90
2022/12/16 01:32:48;;;;;;;25.40;12.43;;;;;;;-8.15;100.00;100141.28;6210409;28;20038;-89
2022/12/16 01:36:01;;;;;;;23.02;12.88;;;;;;;-8.16;100.00;100148.00;6212345;28;20050;-89
2022/12/16 01:39:02;;;;;;;27.08;12.60;;;;;;;-8.13;100.00;100147.97;6199936;28;20057;-90
2022/12/16 01:42:11;;;;;;;22.75;13.13;;;;;;;-8.15;100.00;100149.66;6214618;28;20052;-90
2022/12/16 01:45:39;;;;;;;26.25;12.05;;;;;;;-8.15;100.00;100142.13;6213075;28;20428;-89
2022/12/16 01:48:54;;;;;;;22.17;12.35;;;;;;;-8.10;100.00;100140.44;6207338;28;20130;-90
2022/12/16 01:52:01;;;;;;;23.50;12.13;;;;;;;-8.11;100.00;100152.97;6211166;28;20058;-90
2022/12/16 01:55:11;;;;;;;21.33;11.85;;;;;;;-8.20;100.00;100148.84;6209314;28;20037;-89
2022/12/16 01:58:23;;;;;;;21.95;12.30;;;;;;;-8.20;100.00;100151.38;6207146;28;20412;-90
2022/12/16 02:01:24;;;;;;;;;;;;;;;-8.27;100.00;100154.81;6213984;28;20038;-90
2022/12/16 02:04:26;;;;;;;22.50;12.25;;;;;;;-8.29;100.00;100147.28;6206158;28;19979;-90
2022/12/16 02:07:28;;;;;;;23.67;11.80;;;;;;;-8.28;100.00;100148.09;6208729;28;20046;-90
2022/12/16 02:10:42;;;;;;;25.52;12.73;;;;;;;-8.31;100.00;100150.63;6198835;28;20155;-89
2022/12/16 02:14:10;;;;;;;21.15;11.55;;;;;;;-8.39;100.00;100142.38;6205987;28;20849;-90
2022/12/16 02:17:36;;;;;;;24.20;12.20;;;;;;;-8.48;100.00;100135.75;6199373;28;20577;-90
2022/12/16 02:20:56;;;;;;;22.67;11.93;;;;;;;-8.43;100.00;100139.03;6202793;28;20077;-89
2022/12/16 02:24:41;;;;;;;25.70;11.80;;;;;;;-8.46;100.00;100127.34;6199725;28;20049;-89
2022/12/16 02:28:10;;;;;;;21.88;11.05;;;;;;;-8.52;100.00;100136.59;6227753;28;20040;-89
2022/12/16 02:31:49;;;;;;;25.30;11.50;;;;;;;-8.51;100.00;100141.63;6200844;28;20053;-89
2022/12/16 02:35:09;;;;;;;25.30;12.13;;;;;;;-8.42;100.00;100144.88;6193223;28;20049;-90
2022/12/16 02:38:31;;;;;;;22.23;11.48;;;;;;;-8.40;100.00;100149.06;6206238;28;20064;-90
2022/12/16 02:41:48;;;;;;;24.00;12.45;;;;;;;-8.44;100.00;100152.44;6216229;28;20056;-90
2022/12/16 02:45:07;;;;;;;26.88;12.18;;;;;;;-8.47;100.00;100150.78;6193967;28;20490;-90
2022/12/16 02:48:10;;;;;;;25.17;12.40;;;;;;;-8.51;100.00;100144.13;6206023;28;20042;-90
2022/12/16 02:51:12;;;;;;;24.55;12.18;;;;;;;-8.55;100.00;100139.97;6191086;28;20424;-90
2022/12/16 02:54:19;;;;;;;23.02;12.55;;;;;;;-8.55;100.00;100129.94;6198922;28;20579;-90
2022/12/16 02:57:54;;;;;;;25.02;12.32;;;;;;;-8.47;100.00;100135.75;6197479;28;20042;-90
2022/12/16 03:01:17;;;;;;;23.35;12.55;;;;;;;-8.58;100.00;100139.16;6209260;28;20126;-90
2022/12/16 03:04:49;;;;;;;24.27;12.63;;;;;;;-8.54;100.00;100141.66;6210387;28;20381;-89
2022/12/16 03:07:55;;;;;;;23.08;12.32;;;;;;;-8.51;100.00;100145.81;6219656;28;20054;-90
2022/12/16 03:11:00;;;;;;;25.10;11.85;;;;;;;-8.55;100.00;100137.44;6216839;28;20404;-90
2022/12/16 03:14:06;;;;;;;25.88;13.52;;;;;;;-8.51;100.00;100138.28;6194313;28;20046;-90
2022/12/16 03:17:09;;;;;;;28.02;11.70;;;;;;;-8.51;100.00;100135.78;6196741;28;20088;-90
2022/12/16 03:20:34;;;;;;;22.02;11.65;;;;;;;-8.52;100.00;100142.47;6204557;28;20046;-90
2022/12/16 03:23:46;;;;;;;21.88;11.48;;;;;;;-8.56;100.00;100140.81;6208418;28;20045;-90
2022/12/16 03:26:57;;;;;;;17.13;11.45;;;;;;;-8.52;100.00;100139.09;6209734;28;20096;-90
2022/12/16 03:29:59;;;;;;;;;;;;;;;-8.54;100.00;100139.13;6202305;28;20042;-90
2022/12/16 03:33:18;;;;;;;22.75;11.27;;;;;;;-8.51;100.00;100141.63;6204969;28;19926;-90
2022/12/16 03:36:23;;;;;;;22.90;11.27;;;;;;;-8.54;100.00;100146.66;6223775;28;20495;-90
2022/12/16 03:39:26;;;;;;;26.73;12.88;;;;;;;-8.54;100.00;100140.81;6213933;28;20049;-90
2022/12/16 03:42:29;;;;;;;25.17;12.07;;;;;;;-8.52;100.00;100157.53;6199164;28;20538;-90
2022/12/16 03:45:36;;;;;;;26.90;13.45;;;;;;;-8.52;100.00;100152.50;6194125;28;20030;-90
2022/12/16 03:48:45;;;;;;;27.75;11.48;;;;;;;-8.54;100.00;100149.16;6205447;28;20045;-90
2022/12/16 03:51:47;;;;;;;22.02;11.00;;;;;;;-8.50;100.00;100149.97;6206303;28;20054;-90
2022/12/16 03:54:48;;;;;;;23.65;11.55;;;;;;;-8.48;100.00;100151.63;6204853;28;20046;-90
2022/12/16 03:57:50;;;;;;;21.40;10.80;;;;;;;-8.44;100.00;100157.47;6213613;28;20236;-90
2022/12/16 04:00:52;;;;;;;23.02;11.93;;;;;;;-8.53;100.00;100150.81;6205778;28;20520;-90
2022/12/16 04:03:53;;;;;;;24.45;11.35;;;;;;;-8.56;100.00;100153.34;6220537;28;20508;-90
2022/12/16 04:24:17;;;;;;;23.10;11.00;;;;;;;-8.62;100.00;100155.06;6218443;28;20053;-89
2022/12/16 04:27:23;;;;;;;20.75;10.77;;;;;;;-8.86;100.00;100161.09;6201307;28;20053;-90
2022/12/16 04:30:27;;;;;;;21.58;11.68;;;;;;;-8.91;100.00;100158.59;6202190;28;20127;-90
